createdAt,value
2023-03-30T00:01:56.055Z,15.40
2023-03-30T00:04:27.246Z,15.40
2023-03-30T00:06:54.246Z,15.50
2023-03-30T00:09:22.640Z,15.50
2023-03-30T00:11:49.143Z,15.60
2023-03-30T00:14:17.830Z,15.60
2023-03-30T00:16:44.437Z,15.80
2023-03-30T00:19:11.328Z,16.00
2023-03-30T00:21:38.195Z,16.10
2023-03-30T00:24:04.885Z,16.20
2023-03-30T00:26:31.670Z,16.20
2023-03-30T00:28:58.176Z,16.30
2023-03-30T00:31:24.858Z,16.30
2023-03-30T00:33:51.643Z,16.40
2023-03-30T00:36:18.773Z,16.50
2023-03-30T00:38:48.188Z,16.50
2023-03-30T00:41:15.104Z,16.50
2023-03-30T00:44:03.185Z,16.50
2023-03-30T00:46:31.764Z,16.50
2023-03-30T00:49:03.976Z,16.40
2023-03-30T00:51:34.193Z,16.60
2023-03-30T00:54:08.373Z,16.70
2023-03-30T00:56:35.461Z,16.80
2023-03-30T00:59:02.710Z,16.80
2023-03-30T01:01:29.814Z,16.60
2023-03-30T01:04:03.523Z,16.70
2023-03-30T01:06:31.442Z,16.70
2023-03-30T01:08:58.799Z,16.70
2023-03-30T01:11:29.160Z,16.70
2023-03-30T01:14:03.023Z,16.60
2023-03-30T01:17:15.204Z,16.60
2023-03-30T01:20:12.587Z,16.50
2023-03-30T01:22:58.777Z,16.50
2023-03-30T01:25:40.585Z,16.70
2023-03-30T01:28:19.489Z,16.60
2023-03-30T01:31:14.733Z,16.60
2023-03-30T01:33:56.605Z,16.60
2023-03-30T01:36:45.513Z,16.80
2023-03-30T01:39:29.447Z,16.70
2023-03-30T01:42:13.898Z,16.70
2023-03-30T01:45:05.291Z,16.70
2023-03-30T01:47:46.547Z,16.80
2023-03-30T01:50:19.324Z,16.80
2023-03-30T01:53:00.791Z,16.90
2023-03-30T01:55:38.064Z,16.90
2023-03-30T01:58:12.836Z,17.00
2023-03-30T02:00:41.577Z,16.80
2023-03-30T02:03:19.795Z,16.80
2023-03-30T02:05:51.538Z,16.70
2023-03-30T02:08:22.842Z,16.60
2023-03-30T02:10:52.480Z,16.60
2023-03-30T02:13:20.580Z,16.60
2023-03-30T02:15:51.444Z,16.50
2023-03-30T02:18:19.835Z,16.40
2023-03-30T02:20:47.369Z,16.40
2023-03-30T02:23:15.011Z,16.10
2023-03-30T02:25:42.004Z,16.10
2023-03-30T02:28:09.076Z,16.00
2023-03-30T02:30:40.300Z,16.00
2023-03-30T02:33:10.811Z,15.80
2023-03-30T02:36:07.012Z,15.80
2023-03-30T02:39:01.778Z,15.70
2023-03-30T02:42:22.297Z,15.80
2023-03-30T02:45:17.871Z,15.70
2023-03-30T02:47:50.700Z,15.70
2023-03-30T02:50:53.231Z,15.60
2023-03-30T02:53:34.356Z,15.60
2023-03-30T02:56:12.500Z,15.60
2023-03-30T02:58:56.467Z,15.30
2023-03-30T03:01:43.073Z,15.40
2023-03-30T03:04:11.745Z,15.30
2023-03-30T03:06:39.795Z,15.20
2023-03-30T03:09:06.333Z,15.10
2023-03-30T03:11:32.864Z,15.10
2023-03-30T03:13:59.958Z,15.00
2023-03-30T03:16:26.574Z,15.10
2023-03-30T03:18:53.773Z,15.10
2023-03-30T03:21:20.404Z,15.10
2023-03-30T03:23:48.375Z,15.00
2023-03-30T03:26:15.282Z,15.10
2023-03-30T03:28:42.652Z,15.00
2023-03-30T03:31:09.670Z,14.90
2023-03-30T03:33:36.349Z,14.80
2023-03-30T03:36:03.428Z,14.90
2023-03-30T03:38:30.710Z,14.90
2023-03-30T03:40:58.842Z,14.90
2023-03-30T03:43:26.064Z,14.80
2023-03-30T03:45:53.426Z,14.70
2023-03-30T03:48:22.059Z,14.90
2023-03-30T03:50:53.480Z,14.90
2023-03-30T03:53:21.062Z,14.90
2023-03-30T03:55:47.940Z,15.00
2023-03-30T03:58:16.250Z,14.90
2023-03-30T04:00:42.907Z,14.90
2023-03-30T04:03:10.259Z,15.10
2023-03-30T04:05:36.781Z,15.10
2023-03-30T04:08:03.556Z,15.10
2023-03-30T04:10:30.427Z,15.10
2023-03-30T04:12:58.217Z,14.90
2023-03-30T04:15:25.238Z,14.80
2023-03-30T04:17:57.807Z,14.80
2023-03-30T04:20:29.291Z,14.80
2023-03-30T04:22:55.983Z,14.70
2023-03-30T04:25:28.723Z,14.70
2023-03-30T04:27:56.542Z,14.80
2023-03-30T04:30:23.532Z,14.80
2023-03-30T04:33:03.252Z,14.90
2023-03-30T04:35:34.234Z,14.90
2023-03-30T04:38:01.948Z,14.90
2023-03-30T04:40:28.679Z,14.90
2023-03-30T04:42:55.579Z,14.90
2023-03-30T04:45:22.202Z,14.80
2023-03-30T04:47:48.816Z,14.80
2023-03-30T04:50:15.611Z,14.80
2023-03-30T04:52:42.173Z,14.90
2023-03-30T04:55:09.830Z,14.80
2023-03-30T04:57:36.456Z,14.80
2023-03-30T05:00:07.584Z,14.70
2023-03-30T05:02:34.204Z,14.70
2023-03-30T05:05:01.162Z,14.70
2023-03-30T05:07:27.711Z,14.70
2023-03-30T05:09:54.213Z,14.70
2023-03-30T05:12:20.996Z,14.60
2023-03-30T05:14:47.724Z,14.60
2023-03-30T05:17:14.278Z,14.60
2023-03-30T05:19:40.950Z,14.50
2023-03-30T05:22:07.464Z,14.40
2023-03-30T05:24:34.349Z,14.40
2023-03-30T05:27:02.135Z,14.30
2023-03-30T05:29:28.635Z,14.40
2023-03-30T05:31:55.210Z,14.40
2023-03-30T05:34:21.748Z,14.50
2023-03-30T05:36:48.317Z,14.40
2023-03-30T05:39:15.129Z,14.40
2023-03-30T05:41:41.689Z,14.30
2023-03-30T05:44:08.196Z,14.20
2023-03-30T05:46:34.738Z,14.40
2023-03-30T05:49:01.271Z,14.40
2023-03-30T05:51:28.647Z,14.50
2023-03-30T05:53:55.236Z,14.30
2023-03-30T05:56:22.994Z,14.30
2023-03-30T05:58:49.512Z,14.30
2023-03-30T06:01:16.504Z,14.30
2023-03-30T06:03:43.248Z,14.20
2023-03-30T06:06:10.103Z,14.40
2023-03-30T06:08:36.737Z,14.40
2023-03-30T06:11:04.307Z,14.40
2023-03-30T06:13:31.673Z,14.40
2023-03-30T06:16:00.176Z,14.40
2023-03-30T06:18:28.105Z,14.30
2023-03-30T06:20:54.679Z,14.30
2023-03-30T06:23:22.856Z,14.30
2023-03-30T06:25:52.992Z,14.40
2023-03-30T06:28:21.347Z,14.70
2023-03-30T06:30:49.289Z,14.70
2023-03-30T06:33:17.418Z,14.70
2023-03-30T06:35:46.094Z,14.60
2023-03-30T06:38:13.519Z,14.70
2023-03-30T06:40:40.064Z,14.70
2023-03-30T06:43:08.138Z,14.70
2023-03-30T06:45:34.742Z,15.00
2023-03-30T06:48:02.062Z,14.90
2023-03-30T06:50:28.612Z,15.00
2023-03-30T06:52:55.138Z,15.10
2023-03-30T06:55:21.883Z,15.00
2023-03-30T06:57:48.656Z,14.90
2023-03-30T07:00:15.829Z,14.90
2023-03-30T07:02:43.174Z,14.90
2023-03-30T07:05:10.701Z,14.90
2023-03-30T07:07:37.303Z,14.70
2023-03-30T07:10:10.004Z,14.60
2023-03-30T07:12:41.280Z,14.70
2023-03-30T07:15:08.834Z,14.60
2023-03-30T07:17:36.497Z,13.70
2023-03-30T07:20:04.075Z,13.00
2023-03-30T07:22:30.814Z,12.50
2023-03-30T07:24:57.634Z,12.40
2023-03-30T07:27:25.399Z,12.30
2023-03-30T07:29:53.158Z,12.30
2023-03-30T07:32:20.350Z,12.30
2023-03-30T07:34:47.273Z,12.30
2023-03-30T07:37:20.326Z,12.40
2023-03-30T07:39:47.661Z,12.40
2023-03-30T07:42:14.418Z,12.20
2023-03-30T07:44:41.015Z,12.10
2023-03-30T07:47:08.805Z,12.10
2023-03-30T07:49:35.436Z,12.10
2023-03-30T07:52:02.377Z,12.30
2023-03-30T07:54:28.921Z,13.10
2023-03-30T07:56:55.456Z,13.60
2023-03-30T07:59:23.679Z,13.60
2023-03-30T08:01:51.902Z,13.50
2023-03-30T08:04:19.099Z,13.30
2023-03-30T08:06:46.084Z,13.30
2023-03-30T08:09:12.989Z,13.80
2023-03-30T08:11:39.968Z,14.40
2023-03-30T08:14:06.496Z,14.90
2023-03-30T08:16:33.395Z,15.20
2023-03-30T08:19:00.040Z,15.20
2023-03-30T08:21:26.945Z,15.20
2023-03-30T08:23:57.704Z,14.80
2023-03-30T08:26:25.332Z,14.60
2023-03-30T08:28:52.732Z,14.10
2023-03-30T08:31:20.858Z,13.90
2023-03-30T08:33:50.656Z,13.50
2023-03-30T08:36:17.398Z,13.00
2023-03-30T08:38:45.161Z,12.10
2023-03-30T08:41:29.610Z,11.60
2023-03-30T08:44:04.997Z,11.20
2023-03-30T08:46:31.642Z,11.10
2023-03-30T08:49:12.799Z,11.00
2023-03-30T08:51:39.614Z,11.20
2023-03-30T08:54:07.184Z,11.30
2023-03-30T08:56:59.382Z,11.50
2023-03-30T08:59:32.400Z,11.60
2023-03-30T09:02:27.541Z,11.70
2023-03-30T09:05:18.934Z,11.80
2023-03-30T09:07:58.213Z,11.80
2023-03-30T09:10:27.181Z,11.60
2023-03-30T09:13:00.171Z,11.60
2023-03-30T09:15:32.114Z,11.50
2023-03-30T09:18:01.905Z,11.50
2023-03-30T09:20:36.322Z,11.50
2023-03-30T09:23:04.131Z,11.50
2023-03-30T09:25:51.325Z,11.50
2023-03-30T09:28:26.866Z,11.40
2023-03-30T09:31:01.283Z,11.40
2023-03-30T09:33:40.007Z,11.30
2023-03-30T09:36:17.087Z,11.40
2023-03-30T09:38:45.136Z,11.50
2023-03-30T09:41:30.751Z,11.60
2023-03-30T09:43:59.767Z,11.60
2023-03-30T09:46:26.404Z,11.70
2023-03-30T09:48:53.286Z,11.70
2023-03-30T09:51:29.788Z,11.70
2023-03-30T09:54:03.780Z,11.80
2023-03-30T09:56:47.447Z,11.70
2023-03-30T09:59:34.417Z,11.80
2023-03-30T10:02:18.408Z,11.90
2023-03-30T10:04:54.350Z,12.00
2023-03-30T10:07:36.736Z,12.10
2023-03-30T10:10:16.581Z,12.40
2023-03-30T10:12:43.152Z,12.90
2023-03-30T10:15:16.711Z,12.80
2023-03-30T10:17:46.783Z,12.80
2023-03-30T10:20:38.758Z,12.60
2023-03-30T10:23:18.670Z,13.00
2023-03-30T10:25:49.978Z,14.00
2023-03-30T10:28:29.814Z,14.40
2023-03-30T10:30:59.577Z,14.80
2023-03-30T10:33:28.071Z,15.00
2023-03-30T10:35:57.651Z,15.10
2023-03-30T10:38:24.529Z,15.30
2023-03-30T10:40:58.555Z,15.70
2023-03-30T10:43:30.669Z,15.80
2023-03-30T10:46:06.345Z,15.20
2023-03-30T10:49:25.404Z,15.60
2023-03-30T10:52:15.579Z,15.80
2023-03-30T10:55:01.024Z,16.10
2023-03-30T10:57:58.151Z,15.90
2023-03-30T11:00:38.483Z,16.50
2023-03-30T11:03:27.448Z,16.70
2023-03-30T11:06:14.474Z,17.00
2023-03-30T11:08:47.793Z,16.10
2023-03-30T11:11:22.038Z,16.00
2023-03-30T11:13:54.260Z,15.90
2023-03-30T11:16:27.375Z,15.50
2023-03-30T11:18:56.539Z,14.90
2023-03-30T11:21:39.388Z,14.10
2023-03-30T11:24:17.485Z,13.90
2023-03-30T11:27:03.353Z,14.10
2023-03-30T11:29:46.121Z,14.10
2023-03-30T11:32:31.740Z,14.80
2023-03-30T11:35:32.084Z,15.30
2023-03-30T11:38:01.637Z,15.70
2023-03-30T11:40:48.778Z,15.70
2023-03-30T11:43:16.890Z,14.90
2023-03-30T11:45:49.423Z,14.10
2023-03-30T11:48:35.861Z,13.40
2023-03-30T11:51:26.899Z,11.90
2023-03-30T11:54:12.011Z,11.60
2023-03-30T11:56:50.015Z,11.50
2023-03-30T11:59:37.887Z,11.40
2023-03-30T12:02:16.812Z,11.40
2023-03-30T12:05:05.234Z,11.20
2023-03-30T12:07:58.694Z,11.20
2023-03-30T12:10:40.747Z,11.40
2023-03-30T12:13:13.728Z,11.40
2023-03-30T12:15:44.945Z,11.60
2023-03-30T12:18:41.234Z,11.40
2023-03-30T12:21:29.704Z,11.30
2023-03-30T12:24:20.577Z,11.30
2023-03-30T12:27:02.096Z,11.30
2023-03-30T12:32:26.277Z,12.10
2023-03-30T12:34:55.091Z,13.70
2023-03-30T12:37:26.581Z,14.90
2023-03-30T12:40:10.305Z,14.80
2023-03-30T12:42:46.642Z,14.50
2023-03-30T12:45:22.189Z,14.50
2023-03-30T12:48:14.633Z,14.90
2023-03-30T12:51:01.584Z,15.40
2023-03-30T12:53:59.742Z,15.30
2023-03-30T12:56:50.330Z,15.10
2023-03-30T12:59:52.679Z,14.50
2023-03-30T13:02:37.442Z,14.00
2023-03-30T13:05:16.694Z,13.30
2023-03-30T13:07:43.847Z,12.90
2023-03-30T13:10:29.319Z,13.40
2023-03-30T13:12:57.822Z,14.30
2023-03-30T13:15:39.419Z,15.20
2023-03-30T13:18:08.964Z,15.80
2023-03-30T13:20:47.695Z,15.90
2023-03-30T13:23:14.343Z,16.10
2023-03-30T13:26:34.741Z,16.80
2023-03-30T13:29:15.104Z,17.20
2023-03-30T13:32:09.661Z,17.40
2023-03-30T13:35:08.595Z,17.40
2023-03-30T13:37:47.152Z,17.40
2023-03-30T13:40:37.990Z,17.40
2023-03-30T13:43:11.103Z,17.30
2023-03-30T13:45:43.233Z,16.90
2023-03-30T13:48:51.152Z,17.00
2023-03-30T13:51:22.948Z,16.90
2023-03-30T13:54:00.943Z,17.30
2023-03-30T13:56:32.104Z,17.40
2023-03-30T13:59:10.067Z,17.50
2023-03-30T14:01:39.551Z,17.00
2023-03-30T14:04:11.754Z,16.50
2023-03-30T14:06:46.864Z,16.80
2023-03-30T14:09:21.146Z,17.50
2023-03-30T14:11:52.121Z,17.50
2023-03-30T14:14:28.889Z,16.40
2023-03-30T14:17:01.928Z,16.30
2023-03-30T14:19:31.724Z,17.10
2023-03-30T14:22:11.798Z,17.00
2023-03-30T14:24:38.337Z,17.10
2023-03-30T14:27:13.988Z,17.50
2023-03-30T14:29:49.616Z,17.80
2023-03-30T14:32:20.986Z,18.00
2023-03-30T14:34:50.365Z,17.60
2023-03-30T14:37:21.056Z,17.30
2023-03-30T14:39:54.342Z,16.80
2023-03-30T14:42:24.507Z,17.40
2023-03-30T14:44:54.588Z,18.10
2023-03-30T14:47:27.022Z,18.60
2023-03-30T14:49:59.907Z,17.90
2023-03-30T14:52:41.267Z,18.20
2023-03-30T14:55:16.794Z,17.80
2023-03-30T14:57:46.189Z,17.90
2023-03-30T15:00:25.150Z,17.20
2023-03-30T15:02:53.252Z,16.80
2023-03-30T15:05:22.808Z,16.20
2023-03-30T15:07:50.642Z,15.60
2023-03-30T15:10:22.805Z,15.30
2023-03-30T15:12:49.649Z,14.90
2023-03-30T15:15:20.877Z,14.60
2023-03-30T15:17:50.276Z,14.60
2023-03-30T15:20:18.430Z,14.70
2023-03-30T15:22:48.403Z,14.60
2023-03-30T15:25:35.580Z,14.60
2023-03-30T15:28:06.596Z,14.90
2023-03-30T15:30:37.595Z,15.70
2023-03-30T15:33:05.757Z,15.20
2023-03-30T15:35:34.796Z,15.40
2023-03-30T15:38:15.865Z,15.80
2023-03-30T15:40:45.210Z,16.70
2023-03-30T15:43:20.703Z,16.60
2023-03-30T15:45:51.365Z,17.10
2023-03-30T15:48:25.346Z,17.00
2023-03-30T15:51:04.411Z,17.20
2023-03-30T15:53:51.115Z,15.90
2023-03-30T15:56:29.451Z,16.50
2023-03-30T15:58:57.483Z,17.30
2023-03-30T16:01:28.623Z,16.80
2023-03-30T16:04:00.303Z,16.80
2023-03-30T16:06:26.918Z,16.00
2023-03-30T16:08:53.459Z,15.40
2023-03-30T16:11:21.613Z,15.10
2023-03-30T16:13:49.117Z,14.80
2023-03-30T16:16:18.309Z,14.60
2023-03-30T16:18:46.475Z,14.60
2023-03-30T16:21:13.114Z,14.50
2023-03-30T16:23:39.706Z,14.50
2023-03-30T16:26:09.377Z,14.40
2023-03-30T16:28:35.941Z,14.30
2023-03-30T16:31:13.929Z,14.20
2023-03-30T16:33:40.712Z,14.20
2023-03-30T16:36:07.550Z,13.50
2023-03-30T16:38:34.120Z,13.40
2023-03-30T16:41:01.438Z,13.80
2023-03-30T16:43:28.119Z,14.40
2023-03-30T16:45:55.201Z,14.90
2023-03-30T16:48:21.865Z,14.70
2023-03-30T16:50:56.584Z,14.30
2023-03-30T16:53:23.408Z,14.10
2023-03-30T16:55:50.418Z,14.10
2023-03-30T16:58:17.239Z,14.00
2023-03-30T17:00:52.667Z,13.90
2023-03-30T17:03:20.325Z,13.70
2023-03-30T17:05:48.650Z,13.60
2023-03-30T17:08:21.064Z,13.50
2023-03-30T17:10:47.908Z,13.50
2023-03-30T17:13:14.469Z,13.50
2023-03-30T17:15:41.133Z,13.60
2023-03-30T17:18:14.229Z,13.40
2023-03-30T17:20:48.043Z,13.50
2023-03-30T17:23:16.747Z,13.50
2023-03-30T17:25:43.883Z,13.40
2023-03-30T17:28:19.492Z,13.30
2023-03-30T17:30:46.047Z,13.40
2023-03-30T17:33:12.903Z,13.40
2023-03-30T17:35:40.203Z,13.50
2023-03-30T17:38:09.080Z,13.40
2023-03-30T17:40:39.715Z,13.50
2023-03-30T17:43:07.751Z,13.50
2023-03-30T17:45:35.180Z,13.50
2023-03-30T17:48:02.693Z,13.50
2023-03-30T17:50:32.647Z,13.70
2023-03-30T17:52:59.549Z,13.50
2023-03-30T17:55:28.971Z,13.40
2023-03-30T17:57:55.744Z,13.40
2023-03-30T18:00:29.555Z,13.10
2023-03-30T18:02:56.588Z,13.10
2023-03-30T18:05:28.632Z,13.10
2023-03-30T18:07:55.684Z,13.00
2023-03-30T18:10:35.751Z,13.10
2023-03-30T18:13:02.906Z,13.00
2023-03-30T18:15:29.520Z,13.00
2023-03-30T18:17:57.665Z,12.90
2023-03-30T18:20:31.630Z,12.80
2023-03-30T18:22:58.464Z,12.80
2023-03-30T18:25:32.696Z,12.60
2023-03-30T18:28:00.636Z,12.70
2023-03-30T18:30:37.492Z,12.60
2023-03-30T18:33:04.524Z,12.50
2023-03-30T18:35:32.979Z,12.50
2023-03-30T18:37:59.751Z,12.60
2023-03-30T18:40:40.575Z,12.60
2023-03-30T18:43:07.687Z,12.40
2023-03-30T18:45:40.205Z,12.50
2023-03-30T18:48:08.604Z,12.40
2023-03-30T18:50:39.357Z,12.40
2023-03-30T18:53:08.321Z,12.30
2023-03-30T18:55:40.264Z,12.30
2023-03-30T18:58:14.079Z,12.40
2023-03-30T19:00:40.699Z,12.30
2023-03-30T19:03:07.822Z,12.40
2023-03-30T19:05:35.561Z,12.50
2023-03-30T19:08:02.193Z,12.40
2023-03-30T19:10:31.071Z,12.40
2023-03-30T19:12:58.899Z,12.40
2023-03-30T19:15:28.419Z,12.30
2023-03-30T19:17:55.497Z,12.20
2023-03-30T19:20:25.474Z,12.20
2023-03-30T19:22:52.689Z,12.10
2023-03-30T19:25:22.064Z,12.10
2023-03-30T19:28:01.922Z,12.00
2023-03-30T19:30:32.245Z,12.00
2023-03-30T19:33:01.320Z,12.00
2023-03-30T19:35:28.347Z,12.10
2023-03-30T19:37:55.647Z,12.20
2023-03-30T19:40:22.821Z,12.10
2023-03-30T19:42:49.861Z,12.00
2023-03-30T19:45:20.560Z,11.90
2023-03-30T19:47:47.334Z,12.00
2023-03-30T19:50:17.698Z,11.70
2023-03-30T19:52:46.936Z,11.70
2023-03-30T19:55:13.565Z,11.60
2023-03-30T19:57:40.381Z,11.50
2023-03-30T20:00:12.339Z,11.40
2023-03-30T20:02:40.982Z,11.40
2023-03-30T20:05:10.114Z,11.40
2023-03-30T20:07:37.635Z,11.30
2023-03-30T20:10:06.224Z,11.30
2023-03-30T20:12:33.091Z,11.40
2023-03-30T20:15:00.548Z,11.40
2023-03-30T20:17:31.477Z,11.40
2023-03-30T20:19:58.141Z,11.40
2023-03-30T20:22:25.354Z,11.40
2023-03-30T20:24:51.979Z,11.30
2023-03-30T20:27:18.588Z,11.40
2023-03-30T20:29:45.260Z,11.40
2023-03-30T20:32:11.792Z,11.40
2023-03-30T20:34:38.328Z,11.40
2023-03-30T20:37:04.833Z,11.40
2023-03-30T20:39:34.078Z,11.40
2023-03-30T20:42:01.939Z,11.40
2023-03-30T20:44:31.705Z,11.40
2023-03-30T20:46:58.690Z,11.40
2023-03-30T20:49:26.548Z,11.40
2023-03-30T20:51:53.330Z,11.60
2023-03-30T20:54:20.721Z,11.60
2023-03-30T20:56:47.444Z,11.60
2023-03-30T20:59:14.186Z,11.50
2023-03-30T21:01:41.014Z,11.60
2023-03-30T21:04:08.092Z,11.40
2023-03-30T21:06:35.811Z,11.40
2023-03-30T21:09:05.712Z,11.30
2023-03-30T21:11:35.142Z,11.40
2023-03-30T21:14:02.142Z,11.40
2023-03-30T21:16:29.415Z,11.40
2023-03-30T21:18:56.109Z,11.40
2023-03-30T21:21:22.775Z,11.30
2023-03-30T21:23:49.365Z,11.30
2023-03-30T21:26:18.434Z,11.30
2023-03-30T21:28:45.412Z,11.20
2023-03-30T21:31:16.983Z,11.20
2023-03-30T21:33:43.697Z,11.10
2023-03-30T21:36:11.819Z,11.10
2023-03-30T21:38:38.581Z,11.20
2023-03-30T21:41:08.064Z,11.30
2023-03-30T21:43:37.470Z,11.40
2023-03-30T21:46:09.861Z,11.50
2023-03-30T21:48:38.898Z,11.50
2023-03-30T21:51:17.645Z,11.60
2023-03-30T21:53:46.894Z,11.60
2023-03-30T21:56:13.949Z,11.50
2023-03-30T21:58:40.841Z,11.60
2023-03-30T22:01:17.721Z,11.60
2023-03-30T22:03:45.758Z,11.50
2023-03-30T22:06:14.108Z,11.40
2023-03-30T22:08:41.029Z,11.40
2023-03-30T22:11:19.423Z,11.30
2023-03-30T22:13:48.512Z,11.20
2023-03-30T22:16:27.873Z,11.20
2023-03-30T22:18:55.144Z,11.20
2023-03-30T22:21:24.380Z,11.10
2023-03-30T22:23:52.475Z,11.00
2023-03-30T22:26:19.034Z,10.90
2023-03-30T22:28:45.618Z,10.90
2023-03-30T22:31:14.998Z,10.90
2023-03-30T22:33:41.948Z,10.90
2023-03-30T22:36:20.285Z,11.00
2023-03-30T22:38:48.337Z,11.00
2023-03-30T22:41:15.258Z,11.10
2023-03-30T22:43:41.883Z,11.20
2023-03-30T22:46:08.564Z,11.20
2023-03-30T22:48:35.540Z,11.10
2023-03-30T22:51:04.504Z,11.00
2023-03-30T22:53:32.058Z,10.90
2023-03-30T22:55:58.615Z,11.00
2023-03-30T22:58:25.237Z,10.90
2023-03-30T23:00:51.982Z,11.00
2023-03-30T23:03:18.862Z,11.10
2023-03-30T23:05:51.952Z,11.10
2023-03-30T23:08:18.794Z,11.30
2023-03-30T23:10:45.787Z,11.40
2023-03-30T23:13:12.315Z,11.50
2023-03-30T23:15:38.805Z,11.60
2023-03-30T23:18:05.980Z,11.60
2023-03-30T23:20:32.580Z,11.50
2023-03-30T23:22:59.106Z,11.50
2023-03-30T23:25:26.452Z,11.50
2023-03-30T23:27:53.003Z,11.50
2023-03-30T23:30:19.581Z,11.50
2023-03-30T23:32:46.120Z,11.40
2023-03-30T23:35:12.721Z,11.40
2023-03-30T23:37:40.049Z,11.60
2023-03-30T23:40:07.876Z,11.70
2023-03-30T23:42:34.741Z,11.70
2023-03-30T23:45:01.369Z,11.70
2023-03-30T23:47:28.135Z,11.60
2023-03-30T23:49:55.233Z,11.60
2023-03-30T23:52:21.875Z,11.60
2023-03-30T23:54:52.174Z,11.60
2023-03-30T23:57:19.794Z,11.60
2023-03-30T23:59:46.390Z,11.60
